Time,TemperatureF,DewpointF,PressureIn,WindDirection,WindDirectionDegrees,WindSpeedMPH,WindSpeedGustMPH,Humidity,HourlyPrecipIn,Conditions,Clouds,dailyrainin,SoftwareType,DateUTC
2013-04-16 00:00:00,30.3,29.8,29.75,WSW,240,1.0,1.0,98,0.00,,,0.00,WeatherCatV1.14B232,2013-04-16 06:00:00,
2013-04-16 00:05:00,30.5,30.0,29.75,North,11,0.0,0.0,98,0.00,,,0.00,WeatherCatV1.14B232,2013-04-16 06:05:00,
2013-04-16 00:10:00,30.5,30.0,29.75,NE,39,0.0,1.0,98,0.00,,,0.00,WeatherCatV1.14B232,2013-04-16 06:10:00,
2013-04-16 00:15:00,30.4,29.9,29.74,NE,39,0.0,0.0,98,0.00,,,0.00,WeatherCatV1.14B232,2013-04-16 06:15:00,
2013-04-16 00:20:00,30.2,29.7,29.74,NE,39,0.0,0.0,98,0.00,,,0.00,WeatherCatV1.14B232,2013-04-16 06:20:00,
2013-04-16 00:25:00,30.1,29.6,29.74,NE,39,0.0,0.0,98,0.00,,,0.00,WeatherCatV1.14B232,2013-04-16 06:25:00,
2013-04-16 00:30:00,30.1,29.6,29.74,NE,39,0.0,0.0,98,0.00,,,0.00,WeatherCatV1.14B232,2013-04-16 06:30:00,
2013-04-16 00:35:00,30.1,29.6,29.74,NW,307,1.0,1.0,98,0.00,,,0.00,WeatherCatV1.14B232,2013-04-16 06:35:00,
2013-04-16 00:40:00,30.1,29.6,29.74,WNW,301,0.0,0.0,98,0.00,,,0.00,WeatherCatV1.14B232,2013-04-16 06:40:00,
2013-04-16 00:45:00,30.2,29.7,29.74,WNW,302,0.0,0.0,98,0.00,,,0.00,WeatherCatV1.14B232,2013-04-16 06:45:00,
2013-04-16 00:50:00,30.2,29.7,29.74,WNW,301,0.0,0.0,98,0.00,,,0.00,WeatherCatV1.14B232,2013-04-16 06:50:00,
2013-04-16 00:55:00,30.2,29.7,29.74,NNE,27,0.0,1.0,98,0.00,,,0.00,WeatherCatV1.14B232,2013-04-16 06:55:00,
2013-04-16 01:00:00,30.2,29.7,29.74,North,349,0.0,0.0,98,0.00,,,0.00,WeatherCatV1.14B232,2013-04-16 07:00:00,
2013-04-16 01:05:00,30.2,29.7,29.73,WNW,296,0.0,1.0,98,0.00,,,0.00,WeatherCatV1.14B232,2013-04-16 07:05:00,
2013-04-16 01:10:00,30.2,29.7,29.74,NNW,345,0.0,2.0,98,0.00,,,0.00,WeatherCatV1.14B232,2013-04-16 07:10:00,
2013-04-16 01:15:00,30.2,29.7,29.74,WNW,298,0.0,0.0,98,0.00,,,0.00,WeatherCatV1.14B232,2013-04-16 07:15:00,
2013-04-16 01:20:00,30.1,29.6,29.74,WNW,298,0.0,0.0,98,0.00,,,0.00,WeatherCatV1.14B232,2013-04-16 07:20:00,
2013-04-16 01:25:00,30.1,29.6,29.73,WNW,298,0.0,0.0,98,0.00,,,0.00,WeatherCatV1.14B232,2013-04-16 07:25:00,
2013-04-16 01:30:00,30.0,29.5,29.73,WNW,301,0.0,0.0,98,0.00,,,0.00,WeatherCatV1.14B232,2013-04-16 07:30:00,
2013-04-16 01:35:00,29.9,29.4,29.73,NNE,32,0.0,0.0,98,0.00,,,0.00,WeatherCatV1.14B232,2013-04-16 07:35:00,
2013-04-16 01:40:00,29.8,29.3,29.73,NNE,33,0.0,0.0,98,0.00,,,0.00,WeatherCatV1.14B232,2013-04-16 07:40:00,
2013-04-16 01:45:00,29.8,29.3,29.73,NNE,33,0.0,0.0,98,0.00,,,0.00,WeatherCatV1.14B232,2013-04-16 07:45:00,
2013-04-16 01:50:00,29.7,29.2,29.73,NNE,33,0.0,0.0,98,0.00,,,0.00,WeatherCatV1.14B232,2013-04-16 07:50:00,
2013-04-16 01:55:00,29.6,29.1,29.73,NNE,33,0.0,0.0,98,0.00,,,0.00,WeatherCatV1.14B232,2013-04-16 07:55:00,
2013-04-16 02:00:00,29.4,28.9,29.73,North,355,1.0,4.0,98,0.00,,,0.00,WeatherCatV1.14B232,2013-04-16 08:00:00,
2013-04-16 02:05:00,29.2,28.7,29.72,NNW,332,0.0,0.0,98,0.00,,,0.00,WeatherCatV1.14B232,2013-04-16 08:05:00,
2013-04-16 02:10:00,29.3,28.8,29.73,WNW,285,0.0,1.0,98,0.00,,,0.00,WeatherCatV1.14B232,2013-04-16 08:10:00,
2013-04-16 02:15:00,29.5,29.0,29.73,SW,214,0.0,1.0,98,0.00,,,0.00,WeatherCatV1.14B232,2013-04-16 08:15:00,
2013-04-16 02:20:00,29.7,29.2,29.73,WNW,283,0.0,1.0,98,0.00,,,0.00,WeatherCatV1.14B232,2013-04-16 08:20:00,
2013-04-16 02:25:00,29.8,29.3,29.72,NW,304,0.0,0.0,98,0.00,,,0.00,WeatherCatV1.14B232,2013-04-16 08:25:00,
2013-04-16 02:30:00,30.0,29.5,29.72,NNE,33,0.0,0.0,98,0.00,,,0.00,WeatherCatV1.14B232,2013-04-16 08:30:00,
2013-04-16 02:35:00,30.0,29.5,29.72,NNW,345,1.0,1.0,98,0.00,,,0.00,WeatherCatV1.14B232,2013-04-16 08:35:00,
2013-04-16 02:40:00,29.7,29.2,29.72,North,349,0.0,0.0,98,0.00,,,0.00,WeatherCatV1.14B232,2013-04-16 08:40:00,
2013-04-16 02:45:00,29.6,29.1,29.72,NNE,25,0.0,0.0,98,0.00,,,0.00,WeatherCatV1.14B232,2013-04-16 08:45:00,
2013-04-16 02:50:00,29.5,29.0,29.71,NNE,26,0.0,1.0,98,0.00,,,0.00,WeatherCatV1.14B232,2013-04-16 08:50:00,
2013-04-16 02:55:00,29.4,28.9,29.72,WSW,245,0.0,0.0,98,0.00,,,0.00,WeatherCatV1.14B232,2013-04-16 08:55:00,
2013-04-16 03:00:00,29.4,28.9,29.71,East,100,0.0,0.0,98,0.00,,,0.00,WeatherCatV1.14B232,2013-04-16 09:00:00,
2013-04-16 03:05:00,29.4,28.9,29.72,East,100,0.0,0.0,98,0.00,,,0.00,WeatherCatV1.14B232,2013-04-16 09:05:00,
2013-04-16 03:10:00,29.4,28.9,29.72,SE,131,0.0,0.0,98,0.00,,,0.00,WeatherCatV1.14B232,2013-04-16 09:10:00,
2013-04-16 03:15:00,29.4,28.9,29.72,SSE,162,1.0,1.0,98,0.00,,,0.00,WeatherCatV1.14B232,2013-04-16 09:15:00,
2013-04-16 03:20:00,29.5,29.0,29.72,South,169,0.0,0.0,98,0.00,,,0.00,WeatherCatV1.14B232,2013-04-16 09:20:00,
2013-04-16 03:25:00,29.5,29.0,29.72,SSE,167,1.0,1.0,98,0.00,,,0.00,WeatherCatV1.14B232,2013-04-16 09:25:00,
2013-04-16 03:30:00,29.5,29.0,29.71,SSE,163,1.0,1.0,98,0.00,,,0.00,WeatherCatV1.14B232,2013-04-16 09:30:00,
2013-04-16 03:35:00,29.5,29.0,29.71,West,269,0.0,0.0,98,0.00,,,0.00,WeatherCatV1.14B232,2013-04-16 09:35:00,
2013-04-16 03:40:00,29.6,29.1,29.71,SE,131,0.0,0.0,98,0.00,,,0.00,WeatherCatV1.14B232,2013-04-16 09:40:00,
2013-04-16 03:45:00,29.6,29.1,29.72,SE,131,0.0,0.0,98,0.00,,,0.00,WeatherCatV1.14B232,2013-04-16 09:45:00,
2013-04-16 03:50:00,29.6,29.1,29.72,SE,131,0.0,0.0,98,0.00,,,0.00,WeatherCatV1.14B232,2013-04-16 09:50:00,
2013-04-16 03:55:00,29.6,29.1,29.72,North,11,0.0,1.0,98,0.00,,,0.00,WeatherCatV1.14B232,2013-04-16 09:55:00,
2013-04-16 04:00:00,29.3,28.8,29.72,North,11,0.0,0.0,98,0.00,,,0.00,WeatherCatV1.14B232,2013-04-16 10:00:00,
2013-04-16 04:05:00,29.3,28.8,29.71,NW,315,1.0,1.0,98,0.00,,,0.00,WeatherCatV1.14B232,2013-04-16 10:05:00,
2013-04-16 04:10:00,29.4,28.9,29.72,West,278,0.0,1.0,98,0.00,,,0.00,WeatherCatV1.14B232,2013-04-16 10:10:00,
2013-04-16 04:15:00,29.5,29.0,29.72,WNW,288,0.0,1.0,98,0.00,,,0.00,WeatherCatV1.14B232,2013-04-16 10:15:00,
2013-04-16 04:20:00,29.6,29.1,29.72,WSW,257,0.0,1.0,98,0.00,,,0.00,WeatherCatV1.14B232,2013-04-16 10:20:00,
2013-04-16 04:25:00,29.6,29.1,29.72,WNW,285,0.0,0.0,98,0.00,,,0.00,WeatherCatV1.14B232,2013-04-16 10:25:00,
2013-04-16 04:30:00,29.6,29.1,29.72,North,359,2.0,2.0,98,0.00,,,0.00,WeatherCatV1.14B232,2013-04-16 10:30:00,
2013-04-16 04:35:00,29.4,28.9,29.71,NNE,22,1.0,1.0,98,0.00,,,0.00,WeatherCatV1.14B232,2013-04-16 10:35:00,
2013-04-16 04:40:00,29.2,28.7,29.72,WNW,282,0.0,0.0,98,0.00,,,0.00,WeatherCatV1.14B232,2013-04-16 10:40:00,
2013-04-16 04:45:00,29.1,28.6,29.71,ENE,63,1.0,2.0,98,0.00,,,0.00,WeatherCatV1.14B232,2013-04-16 10:45:00,
2013-04-16 04:50:00,28.9,28.4,29.72,West,262,0.0,1.0,98,0.00,,,0.00,WeatherCatV1.14B232,2013-04-16 10:50:00,
2013-04-16 04:55:00,28.8,28.3,29.72,ESE,122,0.0,0.0,98,0.00,,,0.00,WeatherCatV1.14B232,2013-04-16 10:55:00,
2013-04-16 05:00:00,28.8,28.3,29.71,North,8,0.0,0.0,98,0.00,,,0.00,WeatherCatV1.14B232,2013-04-16 11:00:00,
2013-04-16 05:05:00,28.6,28.1,29.72,North,8,0.0,0.0,98,0.00,,,0.00,WeatherCatV1.14B232,2013-04-16 11:05:00,
2013-04-16 05:10:00,28.6,28.1,29.72,North,8,0.0,0.0,98,0.00,,,0.00,WeatherCatV1.14B232,2013-04-16 11:10:00,
2013-04-16 05:15:00,28.6,28.1,29.72,West,263,1.0,1.0,98,0.00,,,0.00,WeatherCatV1.14B232,2013-04-16 11:15:00,
2013-04-16 05:20:00,28.6,28.1,29.72,NNW,345,0.0,1.0,98,0.00,,,0.00,WeatherCatV1.14B232,2013-04-16 11:20:00,
2013-04-16 05:25:00,28.4,27.9,29.72,NNE,13,0.0,1.0,98,0.00,,,0.00,WeatherCatV1.14B232,2013-04-16 11:25:00,
2013-04-16 05:30:00,28.2,27.7,29.72,North,349,0.0,2.0,98,0.00,,,0.00,WeatherCatV1.14B232,2013-04-16 11:30:00,
2013-04-16 05:35:00,28.0,27.3,29.72,WNW,295,2.0,2.0,97,0.00,,,0.00,WeatherCatV1.14B232,2013-04-16 11:35:00,
2013-04-16 05:40:00,28.0,27.5,29.72,East,85,1.0,1.0,98,0.00,,,0.00,WeatherCatV1.14B232,2013-04-16 11:40:00,
2013-04-16 05:45:00,27.8,27.1,29.74,SSE,153,2.0,3.0,97,0.00,,,0.00,WeatherCatV1.14B232,2013-04-16 11:45:00,
2013-04-16 05:50:00,27.6,26.9,29.73,WNW,287,0.0,0.0,97,0.00,,,0.00,WeatherCatV1.14B232,2013-04-16 11:50:00,
2013-04-16 05:55:00,27.5,26.8,29.73,East,96,0.0,2.0,97,0.00,,,0.00,WeatherCatV1.14B232,2013-04-16 11:55:00,
2013-04-16 06:00:00,27.4,26.9,29.74,West,280,1.0,1.0,98,0.00,,,0.00,WeatherCatV1.14B232,2013-04-16 12:00:00,
2013-04-16 06:05:00,27.4,26.9,29.73,East,101,0.0,1.0,98,0.00,,,0.00,WeatherCatV1.14B232,2013-04-16 12:05:00,
2013-04-16 06:10:00,27.2,26.7,29.73,NE,40,2.0,2.0,98,0.00,,,0.00,WeatherCatV1.14B232,2013-04-16 12:10:00,
2013-04-16 06:15:00,27.1,26.4,29.73,SSE,164,1.0,2.0,97,0.00,,,0.00,WeatherCatV1.14B232,2013-04-16 12:15:00,
2013-04-16 06:20:00,27.0,26.3,29.73,NE,39,2.0,2.0,97,0.00,,,0.00,WeatherCatV1.14B232,2013-04-16 12:20:00,
2013-04-16 06:25:00,27.0,26.3,29.74,WNW,295,1.0,3.0,97,0.00,,,0.00,WeatherCatV1.14B232,2013-04-16 12:25:00,
2013-04-16 06:30:00,27.0,26.3,29.74,West,281,1.0,2.0,97,0.00,,,0.00,WeatherCatV1.14B232,2013-04-16 12:30:00,
2013-04-16 06:35:00,27.0,26.3,29.73,NNE,12,1.0,1.0,97,0.00,,,0.00,WeatherCatV1.14B232,2013-04-16 12:35:00,
2013-04-16 06:40:00,27.1,26.4,29.74,SSE,162,0.0,1.0,97,0.00,,,0.00,WeatherCatV1.14B232,2013-04-16 12:40:00,
2013-04-16 06:41:00,27.1,26.4,29.74,SSE,162,0.0,0.0,97,0.00,,,0.00,WeatherCatV1.14B232,2013-04-16 12:41:00,
2013-04-16 06:46:00,27.1,26.4,29.75,WSW,249,0.0,1.0,97,0.00,,,0.00,WeatherCatV1.14B232,2013-04-16 12:46:00,
2013-04-16 06:51:00,27.2,26.5,29.74,ESE,107,0.0,1.0,97,0.00,,,0.00,WeatherCatV1.14B232,2013-04-16 12:51:00,
2013-04-16 06:56:00,27.2,26.5,29.74,WNW,285,0.0,1.0,97,0.00,,,0.00,WeatherCatV1.14B232,2013-04-16 12:56:00,
2013-04-16 07:01:00,27.3,26.6,29.73,NNE,19,0.0,2.0,97,0.00,,,0.00,WeatherCatV1.14B232,2013-04-16 13:01:00,
2013-04-16 07:06:00,27.5,26.8,29.75,WSW,249,0.0,0.0,97,0.00,,,0.00,WeatherCatV1.14B232,2013-04-16 13:06:00,
2013-04-16 07:11:00,27.7,27.0,29.74,East,85,4.0,4.0,97,0.00,,,0.00,WeatherCatV1.14B232,2013-04-16 13:11:00,
2013-04-16 07:16:00,27.9,27.2,29.75,ESE,112,1.0,2.0,97,0.00,,,0.00,WeatherCatV1.14B232,2013-04-16 13:16:00,
2013-04-16 07:21:00,28.2,27.5,29.74,SE,143,1.0,2.0,97,0.00,,,0.00,WeatherCatV1.14B232,2013-04-16 13:21:00,
2013-04-16 07:26:00,28.2,27.5,29.73,NNW,343,2.0,2.0,97,0.00,,,0.00,WeatherCatV1.14B232,2013-04-16 13:26:00,
2013-04-16 07:31:00,28.3,27.6,29.74,East,90,3.0,4.0,97,0.00,,,0.00,WeatherCatV1.14B232,2013-04-16 13:31:00,
2013-04-16 07:36:00,28.6,27.9,29.74,NNW,333,1.0,2.0,97,0.00,,,0.00,WeatherCatV1.14B232,2013-04-16 13:36:00,
2013-04-16 07:40:00,28.9,28.2,29.74,South,181,2.0,3.0,97,0.00,,,0.00,WeatherCatV1.14B232,2013-04-16 13:40:00,
2013-04-16 07:45:00,29.0,28.0,29.74,WNW,298,1.0,1.0,96,0.00,,,0.00,WeatherCatV1.14B232,2013-04-16 13:45:00,
2013-04-16 07:50:00,29.2,28.5,29.73,NNE,29,3.0,4.0,97,0.00,,,0.00,WeatherCatV1.14B232,2013-04-16 13:50:00,
2013-04-16 07:55:00,29.5,28.5,29.73,WSW,252,2.0,3.0,96,0.00,,,0.00,WeatherCatV1.14B232,2013-04-16 13:55:00,
2013-04-16 08:00:00,29.8,28.8,29.74,East,101,1.0,1.0,96,0.00,,,0.00,WeatherCatV1.14B232,2013-04-16 14:00:00,
2013-04-16 08:05:00,30.3,29.3,29.73,WNW,288,0.0,1.0,96,0.00,,,0.00,WeatherCatV1.14B232,2013-04-16 14:05:00,
2013-04-16 08:10:00,30.8,29.5,29.74,NNW,344,3.0,4.0,95,0.00,,,0.00,WeatherCatV1.14B232,2013-04-16 14:10:00,
2013-04-16 08:15:00,31.1,29.8,29.73,North,9,1.0,1.0,95,0.00,,,0.00,WeatherCatV1.14B232,2013-04-16 14:15:00,
2013-04-16 08:20:00,31.3,29.5,29.73,NW,307,0.0,5.0,93,0.00,,,0.00,WeatherCatV1.14B232,2013-04-16 14:20:00,
2013-04-16 08:25:00,31.3,29.8,29.73,WNW,290,1.0,3.0,94,0.00,,,0.00,WeatherCatV1.14B232,2013-04-16 14:25:00,
2013-04-16 08:30:00,31.4,29.9,29.73,NNW,343,2.0,2.0,94,0.00,,,0.00,WeatherCatV1.14B232,2013-04-16 14:30:00,
2013-04-16 08:35:00,31.4,29.6,29.73,NE,41,2.0,3.0,93,0.00,,,0.00,WeatherCatV1.14B232,2013-04-16 14:35:00,
2013-04-16 08:40:00,31.3,29.5,29.73,NE,47,0.0,2.0,93,0.00,,,0.00,WeatherCatV1.14B232,2013-04-16 14:40:00,
2013-04-16 08:45:00,31.4,29.6,29.72,NE,43,3.0,3.0,93,0.00,,,0.00,WeatherCatV1.14B232,2013-04-16 14:45:00,
2013-04-16 08:50:00,31.8,30.0,29.72,NE,46,1.0,2.0,93,0.00,,,0.00,WeatherCatV1.14B232,2013-04-16 14:50:00,
2013-04-16 08:55:00,32.4,30.1,29.71,North,353,3.0,14.0,91,0.00,,,0.00,WeatherCatV1.14B232,2013-04-16 14:55:00,
2013-04-16 09:00:00,33.7,31.1,29.72,ESE,122,0.0,5.0,90,0.00,,,0.00,WeatherCatV1.14B232,2013-04-16 15:00:00,
2013-04-16 09:05:00,34.2,31.9,29.71,NW,321,3.0,6.0,91,0.00,,,0.00,WeatherCatV1.14B232,2013-04-16 15:05:00,
2013-04-16 09:10:00,34.7,32.1,29.71,NE,49,2.0,4.0,90,0.00,,,0.00,WeatherCatV1.14B232,2013-04-16 15:10:00,
2013-04-16 09:15:00,36.8,33.3,29.70,North,9,2.0,5.0,87,0.00,,,0.00,WeatherCatV1.14B232,2013-04-16 15:15:00,
2013-04-16 09:20:00,40.8,32.5,29.71,SW,229,14.0,23.0,72,0.00,,,0.00,WeatherCatV1.14B232,2013-04-16 15:20:00,
2013-04-16 09:25:00,44.1,31.1,29.70,WSW,246,6.0,8.0,60,0.00,,,0.00,WeatherCatV1.14B232,2013-04-16 15:25:00,
2013-04-16 09:30:00,44.9,33.9,29.71,WSW,242,2.0,2.0,65,0.00,,,0.00,WeatherCatV1.14B232,2013-04-16 15:30:00,
2013-04-16 09:35:00,44.9,35.0,29.71,SW,233,11.0,11.0,68,0.00,,,0.00,WeatherCatV1.14B232,2013-04-16 15:35:00,
2013-04-16 09:40:00,47.0,27.3,29.71,SW,228,14.0,16.0,46,0.00,,,0.00,WeatherCatV1.14B232,2013-04-16 15:40:00,
2013-04-16 09:45:00,47.7,30.0,29.71,South,188,11.0,15.0,50,0.00,,,0.00,WeatherCatV1.14B232,2013-04-16 15:45:00,
2013-04-16 09:50:00,48.0,28.7,29.71,West,262,4.0,8.0,47,0.00,,,0.00,WeatherCatV1.14B232,2013-04-16 15:50:00,
2013-04-16 09:51:00,48.0,27.7,29.71,WSW,246,6.0,12.0,45,0.00,,,0.00,WeatherCatV1.14B232,2013-04-16 15:51:00,
2013-04-16 09:56:00,48.6,27.7,29.70,SSE,160,13.0,15.0,44,0.00,,,0.00,WeatherCatV1.14B232,2013-04-16 15:56:00,
2013-04-16 10:01:00,49.0,26.9,29.71,WSW,253,6.0,11.0,42,0.00,,,0.00,WeatherCatV1.14B232,2013-04-16 16:01:00,
2013-04-16 10:06:00,49.7,28.1,29.70,SE,124,13.0,15.0,43,0.00,,,0.00,WeatherCatV1.14B232,2013-04-16 16:06:00,
2013-04-16 10:11:00,50.4,27.0,29.70,SW,228,10.0,16.0,40,0.00,,,0.00,WeatherCatV1.14B232,2013-04-16 16:11:00,
2013-04-16 10:16:00,50.4,26.4,29.70,SE,141,4.0,17.0,39,0.00,,,0.00,WeatherCatV1.14B232,2013-04-16 16:16:00,
2013-04-16 10:21:00,50.7,29.0,29.69,WSW,253,2.0,4.0,43,0.00,,,0.00,WeatherCatV1.14B232,2013-04-16 16:21:00,
2013-04-16 10:26:00,51.1,25.1,29.69,WSW,249,14.0,21.0,36,0.00,,,0.00,WeatherCatV1.14B232,2013-04-16 16:26:00,
2013-04-16 10:31:00,51.6,26.8,29.69,SW,219,13.0,15.0,38,0.00,,,0.00,WeatherCatV1.14B232,2013-04-16 16:31:00,
2013-04-16 10:36:00,51.7,26.3,29.68,West,259,5.0,11.0,37,0.00,,,0.00,WeatherCatV1.14B232,2013-04-16 16:36:00,
2013-04-16 10:41:00,52.1,27.3,29.68,SSW,204,8.0,13.0,38,0.19,,,0.02,WeatherCatV1.14B232,2013-04-16 16:41:00,
2013-04-16 10:46:00,52.4,27.5,29.68,South,179,1.0,8.0,38,0.20,,,0.03,WeatherCatV1.14B232,2013-04-16 16:46:00,
2013-04-16 10:51:00,52.7,28.4,29.67,South,190,2.0,5.0,39,0.12,,,0.04,WeatherCatV1.14B232,2013-04-16 16:51:00,
2013-04-16 10:56:00,53.3,30.2,29.67,SE,133,1.0,2.0,41,0.14,,,0.05,WeatherCatV1.14B232,2013-04-16 16:56:00,
2013-04-16 11:01:00,54.1,24.9,29.67,ESE,116,2.0,12.0,32,0.16,,,0.07,WeatherCatV1.14B232,2013-04-16 17:01:00,
2013-04-16 11:06:00,53.9,26.9,29.66,SE,141,4.0,5.0,35,0.16,,,0.08,WeatherCatV1.14B232,2013-04-16 17:06:00,
2013-04-16 11:11:00,53.7,27.4,29.66,SW,218,4.0,4.0,36,0.11,,,0.09,WeatherCatV1.14B232,2013-04-16 17:11:00,
2013-04-16 11:16:00,53.7,28.1,29.66,East,85,1.0,6.0,37,0.10,,,0.10,WeatherCatV1.14B232,2013-04-16 17:16:00,
2013-04-16 11:21:00,53.8,26.8,29.66,ESE,103,1.0,5.0,35,0.11,,,0.11,WeatherCatV1.14B232,2013-04-16 17:21:00,
2013-04-16 11:26:00,54.3,29.9,29.65,ESE,107,7.0,8.0,39,0.13,,,0.12,WeatherCatV1.14B232,2013-04-16 17:26:00,
2013-04-16 11:31:00,54.3,29.2,29.65,SW,214,3.0,6.0,38,0.11,,,0.13,WeatherCatV1.14B232,2013-04-16 17:31:00,
2013-04-16 11:36:00,54.8,27.0,29.65,ENE,74,1.0,5.0,34,0.11,,,0.13,WeatherCatV1.14B232,2013-04-16 17:36:00,
2013-04-16 11:41:00,54.7,26.9,29.64,ESE,120,6.0,7.0,34,0.09,,,0.14,WeatherCatV1.14B232,2013-04-16 17:41:00,
2013-04-16 11:46:00,54.8,27.7,29.64,SE,127,1.0,5.0,35,0.07,,,0.14,WeatherCatV1.14B232,2013-04-16 17:46:00,
2013-04-16 11:51:00,55.8,31.2,29.64,WNW,288,2.0,2.0,39,0.06,,,0.15,WeatherCatV1.14B232,2013-04-16 17:51:00,
2013-04-16 11:56:00,57.1,31.7,29.64,East,98,3.0,4.0,38,0.06,,,0.15,WeatherCatV1.14B232,2013-04-16 17:56:00,
2013-04-16 12:01:00,56.9,28.8,29.63,West,273,2.0,7.0,34,0.04,,,0.15,WeatherCatV1.14B232,2013-04-16 18:01:00,
2013-04-16 12:06:00,57.7,29.5,29.63,SW,231,3.0,6.0,34,0.00,,,0.15,WeatherCatV1.14B232,2013-04-16 18:06:00,
2013-04-16 12:11:00,58.5,27.2,29.62,WNW,285,6.0,6.0,30,0.00,,,0.15,WeatherCatV1.14B232,2013-04-16 18:11:00,
2013-04-16 12:16:00,58.2,25.3,29.61,SSE,168,4.0,9.0,28,0.00,,,0.15,WeatherCatV1.14B232,2013-04-16 18:16:00,
2013-04-16 12:21:00,58.7,27.4,29.61,SSW,207,7.0,7.0,30,0.00,,,0.15,WeatherCatV1.14B232,2013-04-16 18:21:00,
2013-04-16 12:26:00,59.0,28.4,29.61,West,276,0.0,3.0,31,0.00,,,0.15,WeatherCatV1.14B232,2013-04-16 18:26:00,
2013-04-16 12:31:00,59.4,28.0,29.60,NNE,25,2.0,4.0,30,0.00,,,0.15,WeatherCatV1.14B232,2013-04-16 18:31:00,
2013-04-16 12:36:00,59.3,25.3,29.60,WSW,257,6.0,14.0,27,0.00,,,0.15,WeatherCatV1.14B232,2013-04-16 18:36:00,
2013-04-16 12:41:00,59.2,27.0,29.60,SW,215,2.0,10.0,29,0.00,,,0.15,WeatherCatV1.14B232,2013-04-16 18:41:00,
2013-04-16 12:46:00,58.5,24.6,29.60,SSW,194,5.0,9.0,27,0.00,,,0.15,WeatherCatV1.14B232,2013-04-16 18:46:00,
2013-04-16 12:51:00,58.4,25.4,29.59,WSW,252,4.0,10.0,28,0.00,,,0.15,WeatherCatV1.14B232,2013-04-16 18:51:00,
2013-04-16 12:56:00,58.4,26.3,29.59,West,264,4.0,10.0,29,0.00,,,0.15,WeatherCatV1.14B232,2013-04-16 18:56:00,
2013-04-16 13:01:00,58.5,26.4,29.58,SW,214,4.0,14.0,29,0.00,,,0.15,WeatherCatV1.14B232,2013-04-16 19:01:00,
2013-04-16 13:06:00,58.1,25.2,29.59,SW,231,8.0,18.0,28,0.00,,,0.15,WeatherCatV1.14B232,2013-04-16 19:06:00,
2013-04-16 13:11:00,58.2,26.9,29.58,SSE,156,14.0,25.0,30,0.00,,,0.15,WeatherCatV1.14B232,2013-04-16 19:11:00,
2013-04-16 13:16:00,58.2,25.3,29.58,WSW,255,16.0,22.0,28,0.00,,,0.15,WeatherCatV1.14B232,2013-04-16 19:16:00,
2013-04-16 13:21:00,57.9,24.1,29.58,SSW,201,9.0,23.0,27,0.00,,,0.15,WeatherCatV1.14B232,2013-04-16 19:21:00,
2013-04-16 13:26:00,58.3,24.5,29.58,West,281,9.0,21.0,27,0.00,,,0.15,WeatherCatV1.14B232,2013-04-16 19:26:00,
2013-04-16 13:31:00,58.9,24.1,29.57,WSW,250,7.0,17.0,26,0.00,,,0.15,WeatherCatV1.14B232,2013-04-16 19:31:00,
2013-04-16 13:36:00,59.5,23.7,29.57,SSW,205,5.0,21.0,25,0.00,,,0.15,WeatherCatV1.14B232,2013-04-16 19:36:00,
2013-04-16 13:41:00,59.7,24.8,29.57,SW,224,10.0,20.0,26,0.00,,,0.15,WeatherCatV1.14B232,2013-04-16 19:41:00,
2013-04-16 13:46:00,59.6,24.7,29.57,SSE,155,5.0,14.0,26,0.00,,,0.15,WeatherCatV1.14B232,2013-04-16 19:46:00,
2013-04-16 13:51:00,60.0,25.0,29.56,WSW,256,7.0,13.0,26,0.00,,,0.15,WeatherCatV1.14B232,2013-04-16 19:51:00,
2013-04-16 13:56:00,60.1,25.1,29.57,WSW,246,7.0,21.0,26,0.00,,,0.15,WeatherCatV1.14B232,2013-04-16 19:56:00,
2013-04-16 14:01:00,60.6,25.5,29.57,WSW,239,9.0,11.0,26,0.00,,,0.15,WeatherCatV1.14B232,2013-04-16 20:01:00,
2013-04-16 14:06:00,59.1,35.4,29.57,NNW,339,5.0,15.0,41,0.00,,,0.15,WeatherCatV1.14B232,2013-04-16 20:06:00,
2013-04-16 14:11:00,56.5,35.4,29.57,WNW,293,2.0,8.0,45,0.00,,,0.15,WeatherCatV1.14B232,2013-04-16 20:11:00,
2013-04-16 14:16:00,55.3,35.9,29.56,NNW,332,14.0,19.0,48,0.00,,,0.15,WeatherCatV1.14B232,2013-04-16 20:16:00,
2013-04-16 14:21:00,54.1,36.4,29.57,NW,323,4.0,14.0,51,0.00,,,0.15,WeatherCatV1.14B232,2013-04-16 20:21:00,
2013-04-16 14:26:00,53.1,36.4,29.56,WNW,294,10.0,19.0,53,0.00,,,0.15,WeatherCatV1.14B232,2013-04-16 20:26:00,
2013-04-16 14:31:00,52.6,36.4,29.56,NW,326,10.0,25.0,54,0.00,,,0.15,WeatherCatV1.14B232,2013-04-16 20:31:00,
2013-04-16 14:36:00,52.1,36.0,29.55,WSW,255,7.0,30.0,54,0.00,,,0.15,WeatherCatV1.14B232,2013-04-16 20:36:00,
2013-04-16 14:41:00,51.9,35.8,29.54,North,350,15.0,24.0,54,0.00,,,0.15,WeatherCatV1.14B232,2013-04-16 20:41:00,
2013-04-16 14:46:00,51.5,35.9,29.54,NW,305,12.0,28.0,55,0.00,,,0.15,WeatherCatV1.14B232,2013-04-16 20:46:00,
2013-04-16 14:51:00,51.1,35.5,29.54,NW,311,15.0,31.0,55,0.00,,,0.15,WeatherCatV1.14B232,2013-04-16 20:51:00,
2013-04-16 14:56:00,50.8,36.1,29.55,NW,318,17.0,19.0,57,0.00,,,0.15,WeatherCatV1.14B232,2013-04-16 20:56:00,
2013-04-16 15:01:00,50.8,36.1,29.55,ENE,72,7.0,18.0,57,0.00,,,0.15,WeatherCatV1.14B232,2013-04-16 21:01:00,
2013-04-16 15:06:00,51.3,35.7,29.55,NW,322,8.0,22.0,55,0.00,,,0.15,WeatherCatV1.14B232,2013-04-16 21:06:00,
2013-04-16 15:11:00,50.9,35.3,29.55,NNW,328,15.0,23.0,55,0.00,,,0.15,WeatherCatV1.14B232,2013-04-16 21:11:00,
2013-04-16 15:16:00,50.8,35.2,29.55,NNW,331,10.0,23.0,55,0.00,,,0.15,WeatherCatV1.14B232,2013-04-16 21:16:00,
2013-04-16 15:21:00,50.0,34.9,29.56,WNW,301,16.0,28.0,56,0.00,,,0.15,WeatherCatV1.14B232,2013-04-16 21:21:00,
2013-04-16 15:26:00,49.6,35.0,29.55,NNW,347,20.0,29.0,57,0.00,,,0.15,WeatherCatV1.14B232,2013-04-16 21:26:00,
2013-04-16 15:31:00,48.9,34.8,29.55,NNW,330,18.0,28.0,58,0.00,,,0.15,WeatherCatV1.14B232,2013-04-16 21:31:00,
2013-04-16 15:36:00,48.5,34.0,29.55,NNW,340,9.0,30.0,57,0.00,,,0.15,WeatherCatV1.14B232,2013-04-16 21:36:00,
2013-04-16 15:41:00,48.2,34.1,29.56,North,356,22.0,22.0,58,0.00,,,0.15,WeatherCatV1.14B232,2013-04-16 21:41:00,
2013-04-16 15:46:00,48.0,34.4,29.56,West,279,13.0,32.0,59,0.00,,,0.15,WeatherCatV1.14B232,2013-04-16 21:46:00,
2013-04-16 15:51:00,48.0,33.9,29.56,NNW,332,12.0,23.0,58,0.00,,,0.15,WeatherCatV1.14B232,2013-04-16 21:51:00,
2013-04-16 15:56:00,47.7,33.7,29.56,NW,305,12.0,30.0,58,0.00,,,0.15,WeatherCatV1.14B232,2013-04-16 21:56:00,
2013-04-16 16:01:00,47.4,33.8,29.56,NNW,347,15.0,25.0,59,0.00,,,0.15,WeatherCatV1.14B232,2013-04-16 22:01:00,
2013-04-16 16:06:00,47.4,33.4,29.57,West,276,6.0,30.0,58,0.00,,,0.15,WeatherCatV1.14B232,2013-04-16 22:06:00,
2013-04-16 16:11:00,47.2,33.6,29.58,WNW,302,7.0,29.0,59,0.00,,,0.15,WeatherCatV1.14B232,2013-04-16 22:11:00,
2013-04-16 16:16:00,47.1,33.9,29.58,North,359,15.0,17.0,60,0.00,,,0.15,WeatherCatV1.14B232,2013-04-16 22:16:00,
2013-04-16 16:21:00,46.9,32.9,29.58,NNW,330,11.0,25.0,58,0.00,,,0.15,WeatherCatV1.14B232,2013-04-16 22:21:00,
2013-04-16 16:26:00,46.3,32.8,29.59,NNW,335,17.0,25.0,59,0.00,,,0.15,WeatherCatV1.14B232,2013-04-16 22:26:00,
2013-04-16 16:31:00,46.0,32.9,29.60,NW,314,18.0,27.0,60,0.00,,,0.15,WeatherCatV1.14B232,2013-04-16 22:31:00,
2013-04-16 16:36:00,45.7,32.6,29.60,NE,49,17.0,22.0,60,0.00,,,0.15,WeatherCatV1.14B232,2013-04-16 22:36:00,
2013-04-16 16:41:00,45.5,32.4,29.60,NNW,335,17.0,29.0,60,0.00,,,0.15,WeatherCatV1.14B232,2013-04-16 22:41:00,
2013-04-16 16:46:00,45.2,33.0,29.61,NW,322,13.0,19.0,62,0.00,,,0.15,WeatherCatV1.14B232,2013-04-16 22:46:00,
2013-04-16 16:51:00,45.3,32.7,29.61,WNW,288,5.0,16.0,61,0.00,,,0.15,WeatherCatV1.14B232,2013-04-16 22:51:00,
2013-04-16 16:56:00,45.3,33.1,29.61,NNW,348,5.0,15.0,62,0.00,,,0.15,WeatherCatV1.14B232,2013-04-16 22:56:00,
2013-04-16 17:01:00,45.2,33.4,29.62,North,354,17.0,19.0,63,0.00,,,0.15,WeatherCatV1.14B232,2013-04-16 23:01:00,
2013-04-16 17:06:00,45.1,32.5,29.62,NW,326,6.0,15.0,61,0.00,,,0.15,WeatherCatV1.14B232,2013-04-16 23:06:00,
2013-04-16 17:11:00,45.1,32.1,29.62,NNW,341,19.0,21.0,60,0.00,,,0.15,WeatherCatV1.14B232,2013-04-16 23:11:00,
2013-04-16 17:16:00,45.1,32.1,29.63,WNW,301,6.0,25.0,60,0.00,,,0.15,WeatherCatV1.14B232,2013-04-16 23:16:00,
2013-04-16 17:21:00,45.2,32.6,29.64,NNW,348,15.0,15.0,61,0.00,,,0.15,WeatherCatV1.14B232,2013-04-16 23:21:00,
2013-04-16 17:26:00,45.1,32.1,29.64,NNW,345,9.0,14.0,60,0.00,,,0.15,WeatherCatV1.14B232,2013-04-16 23:26:00,
2013-04-16 17:31:00,45.1,32.5,29.64,NNW,330,2.0,9.0,61,0.00,,,0.15,WeatherCatV1.14B232,2013-04-16 23:31:00,
2013-04-16 17:36:00,45.1,32.5,29.64,WNW,300,6.0,11.0,61,0.00,,,0.15,WeatherCatV1.14B232,2013-04-16 23:36:00,
2013-04-16 17:41:00,45.3,32.2,29.64,NE,36,9.0,12.0,60,0.00,,,0.15,WeatherCatV1.14B232,2013-04-16 23:41:00,
2013-04-16 17:46:00,45.2,32.6,29.65,NNW,340,6.0,7.0,61,0.00,,,0.15,WeatherCatV1.14B232,2013-04-16 23:46:00,
2013-04-16 17:51:00,45.3,32.2,29.65,North,353,3.0,9.0,60,0.00,,,0.15,WeatherCatV1.14B232,2013-04-16 23:51:00,
2013-04-16 17:56:00,45.4,32.7,29.65,NE,34,4.0,7.0,61,0.00,,,0.15,WeatherCatV1.14B232,2013-04-16 23:56:00,
2013-04-16 18:01:00,45.6,32.1,29.65,NW,323,6.0,8.0,59,0.00,,,0.15,WeatherCatV1.14B232,2013-04-17 00:01:00,
2013-04-16 18:06:00,45.6,32.1,29.65,NNW,328,8.0,10.0,59,0.00,,,0.15,WeatherCatV1.14B232,2013-04-17 00:06:00,
2013-04-16 18:11:00,45.5,32.0,29.65,NNW,345,3.0,6.0,59,0.00,,,0.15,WeatherCatV1.14B232,2013-04-17 00:11:00,
2013-04-16 18:16:00,45.5,32.0,29.65,NNW,342,6.0,8.0,59,0.00,,,0.15,WeatherCatV1.14B232,2013-04-17 00:16:00,
2013-04-16 18:21:00,45.5,32.0,29.65,North,354,7.0,8.0,59,0.00,,,0.15,WeatherCatV1.14B232,2013-04-17 00:21:00,
2013-04-16 18:26:00,45.4,31.9,29.65,NNW,347,7.0,8.0,59,0.00,,,0.15,WeatherCatV1.14B232,2013-04-17 00:26:00,
2013-04-16 18:31:00,45.3,31.8,29.65,NNW,338,2.0,11.0,59,0.00,,,0.15,WeatherCatV1.14B232,2013-04-17 00:31:00,
2013-04-16 18:36:00,45.2,32.1,29.65,North,357,5.0,7.0,60,0.00,,,0.15,WeatherCatV1.14B232,2013-04-17 00:36:00,
2013-04-16 18:41:00,45.0,32.4,29.65,WSW,242,5.0,10.0,61,0.00,,,0.15,WeatherCatV1.14B232,2013-04-17 00:41:00,
2013-04-16 18:46:00,44.8,32.6,29.65,North,5,4.0,5.0,62,0.00,,,0.15,WeatherCatV1.14B232,2013-04-17 00:46:00,
2013-04-16 18:51:00,44.5,32.7,29.65,WNW,301,4.0,6.0,63,0.00,,,0.15,WeatherCatV1.14B232,2013-04-17 00:51:00,
2013-04-16 18:56:00,44.3,32.5,29.65,North,8,6.0,11.0,63,0.00,,,0.15,WeatherCatV1.14B232,2013-04-17 00:56:00,
2013-04-16 19:01:00,44.0,32.2,29.66,NNW,347,10.0,13.0,63,0.00,,,0.15,WeatherCatV1.14B232,2013-04-17 01:01:00,
2013-04-16 19:06:00,43.2,31.1,29.66,WNW,297,6.0,12.0,62,0.00,,,0.15,WeatherCatV1.14B232,2013-04-17 01:06:00,
2013-04-16 19:11:00,42.4,31.1,29.66,NNW,346,4.0,9.0,64,0.00,,,0.15,WeatherCatV1.14B232,2013-04-17 01:11:00,
2013-04-16 19:16:00,41.8,30.9,29.66,WNW,300,5.0,15.0,65,0.00,,,0.15,WeatherCatV1.14B232,2013-04-17 01:16:00,
2013-04-16 19:21:00,41.3,30.8,29.67,NNW,345,7.0,13.0,66,0.00,,,0.15,WeatherCatV1.14B232,2013-04-17 01:21:00,
2013-04-16 19:26:00,40.9,30.4,29.67,NW,309,7.0,15.0,66,0.00,,,0.15,WeatherCatV1.14B232,2013-04-17 01:26:00,
2013-04-16 19:31:00,40.6,30.5,29.67,NNE,12,7.0,15.0,67,0.00,,,0.15,WeatherCatV1.14B232,2013-04-17 01:31:00,
2013-04-16 19:36:00,40.1,29.7,29.68,NNW,327,6.0,7.0,66,0.00,,,0.15,WeatherCatV1.14B232,2013-04-17 01:36:00,
2013-04-16 19:41:00,39.7,29.3,29.68,NNW,335,5.0,16.0,66,0.00,,,0.15,WeatherCatV1.14B232,2013-04-17 01:41:00,
2013-04-16 19:46:00,39.3,29.3,29.69,NW,323,2.0,12.0,67,0.00,,,0.15,WeatherCatV1.14B232,2013-04-17 01:46:00,
2013-04-16 19:51:00,39.2,29.2,29.69,NNW,330,2.0,11.0,67,0.00,,,0.15,WeatherCatV1.14B232,2013-04-17 01:51:00,
2013-04-16 19:56:00,39.0,28.2,29.70,NNW,329,11.0,20.0,65,0.00,,,0.15,WeatherCatV1.14B232,2013-04-17 01:56:00,
2013-04-16 20:01:00,38.6,28.2,29.70,NNW,342,3.0,13.0,66,0.00,,,0.15,WeatherCatV1.14B232,2013-04-17 02:01:00,
2013-04-16 20:06:00,38.2,28.2,29.71,NNW,338,9.0,10.0,67,0.00,,,0.15,WeatherCatV1.14B232,2013-04-17 02:06:00,
2013-04-16 20:11:00,37.8,27.5,29.72,WSW,257,2.0,12.0,66,0.00,,,0.15,WeatherCatV1.14B232,2013-04-17 02:11:00,
2013-04-16 20:16:00,37.4,27.5,29.72,NNW,328,9.0,10.0,67,0.00,,,0.15,WeatherCatV1.14B232,2013-04-17 02:16:00,
2013-04-16 20:21:00,37.0,27.4,29.72,SE,139,5.0,13.0,68,0.00,,,0.15,WeatherCatV1.14B232,2013-04-17 02:21:00,
2013-04-16 20:26:00,36.5,27.3,29.73,WNW,288,6.0,10.0,69,0.00,,,0.15,WeatherCatV1.14B232,2013-04-17 02:26:00,
2013-04-16 20:31:00,36.0,27.5,29.73,NNW,348,7.0,13.0,71,0.00,,,0.15,WeatherCatV1.14B232,2013-04-17 02:31:00,
2013-04-16 20:36:00,35.6,27.1,29.73,North,11,10.0,13.0,71,0.00,,,0.15,WeatherCatV1.14B232,2013-04-17 02:36:00,
2013-04-16 20:41:00,35.3,27.2,29.74,NW,321,3.0,6.0,72,0.00,,,0.15,WeatherCatV1.14B232,2013-04-17 02:41:00,
2013-04-16 20:46:00,35.1,27.3,29.75,NNW,345,3.0,6.0,73,0.00,,,0.15,WeatherCatV1.14B232,2013-04-17 02:46:00,
2013-04-16 20:51:00,35.0,27.2,29.76,NNE,13,2.0,3.0,73,0.00,,,0.15,WeatherCatV1.14B232,2013-04-17 02:51:00,
2013-04-16 20:56:00,34.8,27.0,29.76,NNW,330,7.0,7.0,73,0.00,,,0.15,WeatherCatV1.14B232,2013-04-17 02:56:00,
2013-04-16 21:01:00,34.5,27.1,29.76,NW,319,1.0,5.0,74,0.00,,,0.15,WeatherCatV1.14B232,2013-04-17 03:01:00,
2013-04-16 21:06:00,34.5,27.1,29.77,NW,316,2.0,3.0,74,0.00,,,0.15,WeatherCatV1.14B232,2013-04-17 03:06:00,
2013-04-16 21:11:00,34.5,27.1,29.76,NNW,340,4.0,7.0,74,0.00,,,0.15,WeatherCatV1.14B232,2013-04-17 03:11:00,
2013-04-16 21:16:00,34.3,26.9,29.78,WNW,290,2.0,4.0,74,0.00,,,0.15,WeatherCatV1.14B232,2013-04-17 03:16:00,
2013-04-16 21:21:00,34.2,27.1,29.78,NNW,345,2.0,6.0,75,0.00,,,0.15,WeatherCatV1.14B232,2013-04-17 03:21:00,
2013-04-16 21:26:00,34.0,26.6,29.78,NNW,339,4.0,7.0,74,0.00,,,0.15,WeatherCatV1.14B232,2013-04-17 03:26:00,
2013-04-16 21:31:00,33.7,26.6,29.78,NNE,14,6.0,6.0,75,0.00,,,0.15,WeatherCatV1.14B232,2013-04-17 03:31:00,
2013-04-16 21:36:00,33.6,26.9,29.79,NNW,342,2.0,3.0,76,0.00,,,0.15,WeatherCatV1.14B232,2013-04-17 03:36:00,
2013-04-16 21:41:00,33.5,26.4,29.79,NNW,347,6.0,8.0,75,0.00,,,0.15,WeatherCatV1.14B232,2013-04-17 03:41:00,
2013-04-16 21:46:00,33.3,26.6,29.79,NNW,338,1.0,7.0,76,0.00,,,0.15,WeatherCatV1.14B232,2013-04-17 03:46:00,
2013-04-16 21:51:00,33.2,26.5,29.80,NNW,340,6.0,11.0,76,0.00,,,0.15,WeatherCatV1.14B232,2013-04-17 03:51:00,
2013-04-16 21:56:00,32.9,26.5,29.80,NNW,345,3.0,6.0,77,0.00,,,0.15,WeatherCatV1.14B232,2013-04-17 03:56:00,
2013-04-16 22:00:00,32.9,26.8,29.80,NW,307,1.0,4.0,78,0.00,,,0.15,WeatherCatV1.14B232,2013-04-17 04:00:00,
2013-04-16 22:01:00,32.8,26.7,29.80,NNW,336,5.0,7.0,78,0.00,,,0.15,WeatherCatV1.14B232,2013-04-17 04:01:00,
2013-04-16 22:06:00,32.4,27.2,29.81,NNW,335,2.0,7.0,81,0.00,,,0.15,WeatherCatV1.14B232,2013-04-17 04:06:00,
2013-04-16 22:11:00,31.9,27.3,29.81,NNW,330,2.0,10.0,83,0.00,,,0.15,WeatherCatV1.14B232,2013-04-17 04:11:00,
2013-04-16 22:16:00,31.6,27.3,29.81,North,352,3.0,4.0,84,0.00,,,0.15,WeatherCatV1.14B232,2013-04-17 04:16:00,
2013-04-16 22:21:00,31.3,27.0,29.81,North,349,2.0,4.0,84,0.00,,,0.15,WeatherCatV1.14B232,2013-04-17 04:21:00,
2013-04-16 22:26:00,31.2,27.2,29.82,WNW,300,3.0,6.0,85,0.00,,,0.15,WeatherCatV1.14B232,2013-04-17 04:26:00,
2013-04-16 22:31:00,31.1,26.8,29.81,North,358,0.0,6.0,84,0.00,,,0.15,WeatherCatV1.14B232,2013-04-17 04:31:00,
2013-04-16 22:36:00,30.9,26.6,29.82,WNW,296,3.0,4.0,84,0.00,,,0.15,WeatherCatV1.14B232,2013-04-17 04:36:00,
2013-04-16 22:41:00,30.8,26.8,29.82,NNW,345,0.0,1.0,85,0.00,,,0.15,WeatherCatV1.14B232,2013-04-17 04:41:00,
2013-04-16 22:46:00,30.8,26.5,29.83,NNW,346,0.0,1.0,84,0.00,,,0.15,WeatherCatV1.14B232,2013-04-17 04:46:00,
2013-04-16 22:51:00,30.8,26.3,29.83,NNW,347,3.0,7.0,83,0.00,,,0.15,WeatherCatV1.14B232,2013-04-17 04:51:00,
2013-04-16 22:56:00,30.8,26.3,29.82,NNE,12,3.0,4.0,83,0.00,,,0.15,WeatherCatV1.14B232,2013-04-17 04:56:00,
2013-04-16 23:01:00,30.8,26.3,29.82,NNE,30,0.0,3.0,83,0.00,,,0.15,WeatherCatV1.14B232,2013-04-17 05:01:00,
2013-04-16 23:06:00,30.9,26.1,29.82,North,354,3.0,6.0,82,0.00,,,0.15,WeatherCatV1.14B232,2013-04-17 05:06:00,
2013-04-16 23:11:00,30.8,26.0,29.82,NW,312,2.0,3.0,82,0.00,,,0.15,WeatherCatV1.14B232,2013-04-17 05:11:00,
2013-04-16 23:16:00,30.6,26.1,29.83,NNW,342,4.0,4.0,83,0.00,,,0.15,WeatherCatV1.14B232,2013-04-17 05:16:00,
2013-04-16 23:21:00,30.5,26.0,29.82,NW,319,2.0,7.0,83,0.00,,,0.15,WeatherCatV1.14B232,2013-04-17 05:21:00,
2013-04-16 23:26:00,30.3,26.1,29.82,NW,307,3.0,4.0,84,0.00,,,0.15,WeatherCatV1.14B232,2013-04-17 05:26:00,
2013-04-16 23:31:00,30.1,25.9,29.82,NNW,345,2.0,7.0,84,0.00,,,0.15,WeatherCatV1.14B232,2013-04-17 05:31:00,
2013-04-16 23:36:00,30.0,26.0,29.82,NNW,332,4.0,6.0,85,0.00,,,0.15,WeatherCatV1.14B232,2013-04-17 05:36:00,
2013-04-16 23:41:00,29.8,26.1,29.82,NW,308,1.0,3.0,86,0.00,,,0.15,WeatherCatV1.14B232,2013-04-17 05:41:00,
2013-04-16 23:46:00,29.7,26.0,29.82,WNW,295,3.0,3.0,86,0.00,,,0.15,WeatherCatV1.14B232,2013-04-17 05:46:00,
2013-04-16 23:51:00,29.6,26.2,29.82,NW,311,1.0,3.0,87,0.00,,,0.15,WeatherCatV1.14B232,2013-04-17 05:51:00,
2013-04-16 23:56:00,29.4,26.0,29.82,NNW,330,2.0,3.0,87,0.00,,,0.15,WeatherCatV1.14B232,2013-04-17 05:56:00,